Terminal Aerodrome Forecast
Issued by NWS St Louis, MO

Home | Current Version | Previous Version | Graphics & Text | Print | Product List | Glossary On
Versions: 1 2 3 4 5 6 7 8 9 10 11 12 13 14 15 16 17 18 19 20 21 22 23 24 25 26 27 28 29 30 31 32 33
735
FTUS43 KLSX 220405 AAB
TAFSTL
TAF AMD
KSTL 220405Z 2204/2306 VRB04KT 2SM BR SCT005
     FM220800 VRB04KT 1/2SM FG BKN005
     FM221500 20006KT 4SM BR BKN010
     FM221800 20008KT P6SM SKC=

USA.gov is the U.S. government's official web portal to all federal, state and local government web resources and services.